sensor_id;sensor_type;location;lat;lon;timestamp;P1;durP1;ratioP1;P2;durP2;ratioP2
45318;SDS011;31057;48.498;32.260;2024-02-28T00:00:09;30.73;;;16.08;;
45318;SDS011;31057;48.498;32.260;2024-02-28T00:02:14;25.45;;;16.30;;
45318;SDS011;31057;48.498;32.260;2024-02-28T00:04:16;39.53;;;17.42;;
45318;SDS011;31057;48.498;32.260;2024-02-28T00:06:19;31.98;;;17.10;;
45318;SDS011;31057;48.498;32.260;2024-02-28T00:10:23;27.27;;;15.27;;
45318;SDS011;31057;48.498;32.260;2024-02-28T00:12:25;37.22;;;18.88;;
45318;SDS011;31057;48.498;32.260;2024-02-28T00:14:27;26.70;;;16.05;;
45318;SDS011;31057;48.498;32.260;2024-02-28T00:16:29;37.40;;;17.00;;
45318;SDS011;31057;48.498;32.260;2024-02-28T00:18:31;30.38;;;17.25;;
45318;SDS011;31057;48.498;32.260;2024-02-28T00:22:35;40.53;;;17.30;;
45318;SDS011;31057;48.498;32.260;2024-02-28T00:24:40;36.10;;;16.58;;
45318;SDS011;31057;48.498;32.260;2024-02-28T00:26:43;31.00;;;15.75;;
45318;SDS011;31057;48.498;32.260;2024-02-28T00:28:45;38.00;;;16.73;;
45318;SDS011;31057;48.498;32.260;2024-02-28T00:30:47;30.85;;;17.35;;
45318;SDS011;31057;48.498;32.260;2024-02-28T00:32:49;40.17;;;16.42;;
45318;SDS011;31057;48.498;32.260;2024-02-28T00:36:53;37.03;;;17.33;;
45318;SDS011;31057;48.498;32.260;2024-02-28T00:38:57;28.30;;;16.40;;
45318;SDS011;31057;48.498;32.260;2024-02-28T00:40:59;30.27;;;16.77;;
45318;SDS011;31057;48.498;32.260;2024-02-28T00:43:01;34.97;;;18.05;;
45318;SDS011;31057;48.498;32.260;2024-02-28T00:45:03;35.35;;;17.40;;
45318;SDS011;31057;48.498;32.260;2024-02-28T00:47:06;35.88;;;17.40;;
45318;SDS011;31057;48.498;32.260;2024-02-28T00:49:08;37.38;;;18.85;;
45318;SDS011;31057;48.498;32.260;2024-02-28T00:53:12;34.00;;;17.67;;
45318;SDS011;31057;48.498;32.260;2024-02-28T00:57:16;39.90;;;17.35;;
45318;SDS011;31057;48.498;32.260;2024-02-28T00:59:18;40.50;;;17.48;;
45318;SDS011;31057;48.498;32.260;2024-02-28T01:01:20;33.85;;;17.83;;
45318;SDS011;31057;48.498;32.260;2024-02-28T01:03:22;29.45;;;16.40;;
45318;SDS011;31057;48.498;32.260;2024-02-28T01:05:24;31.42;;;15.80;;
45318;SDS011;31057;48.498;32.260;2024-02-28T01:07:26;32.67;;;16.30;;
45318;SDS011;31057;48.498;32.260;2024-02-28T01:09:28;33.67;;;15.73;;
45318;SDS011;31057;48.498;32.260;2024-02-28T01:13:32;40.20;;;18.95;;
45318;SDS011;31057;48.498;32.260;2024-02-28T01:15:34;28.85;;;15.75;;
45318;SDS011;31057;48.498;32.260;2024-02-28T01:17:37;27.67;;;15.15;;
45318;SDS011;31057;48.498;32.260;2024-02-28T01:19:39;32.92;;;16.27;;
45318;SDS011;31057;48.498;32.260;2024-02-28T01:21:41;38.15;;;17.92;;
45318;SDS011;31057;48.498;32.260;2024-02-28T01:25:45;29.38;;;15.48;;
45318;SDS011;31057;48.498;32.260;2024-02-28T01:27:47;32.38;;;17.23;;
45318;SDS011;31057;48.498;32.260;2024-02-28T01:31:51;38.42;;;16.65;;
45318;SDS011;31057;48.498;32.260;2024-02-28T01:35:57;37.45;;;17.38;;
45318;SDS011;31057;48.498;32.260;2024-02-28T01:38:00;46.85;;;18.33;;
45318;SDS011;31057;48.498;32.260;2024-02-28T01:42:05;44.03;;;18.38;;
45318;SDS011;31057;48.498;32.260;2024-02-28T01:46:42;32.50;;;14.93;;
45318;SDS011;31057;48.498;32.260;2024-02-28T01:48:38;35.22;;;14.82;;
45318;SDS011;31057;48.498;32.260;2024-02-28T01:50:40;26.25;;;14.75;;
45318;SDS011;31057;48.498;32.260;2024-02-28T01:52:43;31.65;;;14.73;;
45318;SDS011;31057;48.498;32.260;2024-02-28T01:56:46;28.67;;;13.68;;
45318;SDS011;31057;48.498;32.260;2024-02-28T02:00:51;27.88;;;12.63;;
45318;SDS011;31057;48.498;32.260;2024-02-28T02:02:54;28.33;;;14.07;;
45318;SDS011;31057;48.498;32.260;2024-02-28T02:04:57;24.25;;;13.23;;
45318;SDS011;31057;48.498;32.260;2024-02-28T02:06:59;32.10;;;13.85;;
45318;SDS011;31057;48.498;32.260;2024-02-28T02:11:03;21.15;;;12.80;;
45318;SDS011;31057;48.498;32.260;2024-02-28T02:13:06;25.05;;;13.20;;
45318;SDS011;31057;48.498;32.260;2024-02-28T02:15:09;23.08;;;13.65;;
45318;SDS011;31057;48.498;32.260;2024-02-28T02:17:11;24.63;;;13.85;;
45318;SDS011;31057;48.498;32.260;2024-02-28T02:19:13;25.55;;;13.23;;
45318;SDS011;31057;48.498;32.260;2024-02-28T02:23:19;21.25;;;12.68;;
45318;SDS011;31057;48.498;32.260;2024-02-28T02:27:24;23.02;;;13.07;;
45318;SDS011;31057;48.498;32.260;2024-02-28T02:29:27;30.42;;;15.18;;
45318;SDS011;31057;48.498;32.260;2024-02-28T02:31:30;37.53;;;13.93;;
45318;SDS011;31057;48.498;32.260;2024-02-28T02:35:34;23.67;;;14.05;;
45318;SDS011;31057;48.498;32.260;2024-02-28T02:37:36;30.13;;;13.52;;
45318;SDS011;31057;48.498;32.260;2024-02-28T02:41:40;23.63;;;11.60;;
45318;SDS011;31057;48.498;32.260;2024-02-28T02:45:44;24.75;;;11.65;;
45318;SDS011;31057;48.498;32.260;2024-02-28T02:47:46;26.48;;;11.25;;
45318;SDS011;31057;48.498;32.260;2024-02-28T02:51:49;21.60;;;11.75;;
45318;SDS011;31057;48.498;32.260;2024-02-28T02:55:55;20.33;;;10.95;;
45318;SDS011;31057;48.498;32.260;2024-02-28T02:59:59;26.73;;;13.00;;
45318;SDS011;31057;48.498;32.260;2024-02-28T03:02:01;17.38;;;10.68;;
45318;SDS011;31057;48.498;32.260;2024-02-28T03:06:05;22.05;;;11.18;;
45318;SDS011;31057;48.498;32.260;2024-02-28T03:10:08;26.65;;;11.45;;
45318;SDS011;31057;48.498;32.260;2024-02-28T03:12:12;21.80;;;11.45;;
45318;SDS011;31057;48.498;32.260;2024-02-28T03:16:16;22.90;;;10.43;;
45318;SDS011;31057;48.498;32.260;2024-02-28T03:18:18;19.80;;;9.35;;
45318;SDS011;31057;48.498;32.260;2024-02-28T03:20:20;23.80;;;10.73;;
45318;SDS011;31057;48.498;32.260;2024-02-28T03:22:22;21.15;;;11.05;;
45318;SDS011;31057;48.498;32.260;2024-02-28T03:26:26;25.40;;;11.80;;
45318;SDS011;31057;48.498;32.260;2024-02-28T03:28:28;21.48;;;10.25;;
45318;SDS011;31057;48.498;32.260;2024-02-28T03:30:30;24.02;;;12.52;;
45318;SDS011;31057;48.498;32.260;2024-02-28T03:34:34;26.05;;;11.32;;
45318;SDS011;31057;48.498;32.260;2024-02-28T03:38:38;30.00;;;11.88;;
45318;SDS011;31057;48.498;32.260;2024-02-28T03:42:42;20.58;;;11.45;;
45318;SDS011;31057;48.498;32.260;2024-02-28T03:46:46;21.23;;;10.73;;
45318;SDS011;31057;48.498;32.260;2024-02-28T03:50:50;21.83;;;11.35;;
45318;SDS011;31057;48.498;32.260;2024-02-28T03:52:52;23.42;;;10.07;;
45318;SDS011;31057;48.498;32.260;2024-02-28T03:56:55;20.45;;;11.63;;
45318;SDS011;31057;48.498;32.260;2024-02-28T04:00:59;25.27;;;11.23;;
45318;SDS011;31057;48.498;32.260;2024-02-28T04:05:04;22.27;;;10.80;;
45318;SDS011;31057;48.498;32.260;2024-02-28T04:07:06;18.33;;;9.13;;
45318;SDS011;31057;48.498;32.260;2024-02-28T04:09:08;13.70;;;9.02;;
45318;SDS011;31057;48.498;32.260;2024-02-28T04:11:10;19.63;;;9.18;;
45318;SDS011;31057;48.498;32.260;2024-02-28T04:15:14;19.85;;;10.57;;
45318;SDS011;31057;48.498;32.260;2024-02-28T04:17:16;25.00;;;12.25;;
45318;SDS011;31057;48.498;32.260;2024-02-28T04:21:20;29.35;;;11.63;;
45318;SDS011;31057;48.498;32.260;2024-02-28T04:25:24;22.48;;;12.52;;
45318;SDS011;31057;48.498;32.260;2024-02-28T04:29:28;28.83;;;12.80;;
45318;SDS011;31057;48.498;32.260;2024-02-28T04:31:30;26.58;;;12.55;;
45318;SDS011;31057;48.498;32.260;2024-02-28T04:33:33;41.67;;;14.80;;
45318;SDS011;31057;48.498;32.260;2024-02-28T04:35:35;33.72;;;13.98;;
45318;SDS011;31057;48.498;32.260;2024-02-28T04:39:39;23.45;;;12.25;;
45318;SDS011;31057;48.498;32.260;2024-02-28T04:41:41;30.65;;;13.43;;
45318;SDS011;31057;48.498;32.260;2024-02-28T04:45:45;21.50;;;11.82;;
45318;SDS011;31057;48.498;32.260;2024-02-28T04:47:47;24.83;;;12.00;;
45318;SDS011;31057;48.498;32.260;2024-02-28T04:51:51;29.83;;;11.82;;
45318;SDS011;31057;48.498;32.260;2024-02-28T04:53:54;27.27;;;12.95;;
45318;SDS011;31057;48.498;32.260;2024-02-28T04:57:58;30.27;;;16.98;;
45318;SDS011;31057;48.498;32.260;2024-02-28T05:00:00;49.65;;;21.73;;
45318;SDS011;31057;48.498;32.260;2024-02-28T05:04:07;46.50;;;20.45;;
45318;SDS011;31057;48.498;32.260;2024-02-28T05:06:10;50.83;;;20.73;;
45318;SDS011;31057;48.498;32.260;2024-02-28T05:10:14;31.77;;;18.48;;
45318;SDS011;31057;48.498;32.260;2024-02-28T05:12:16;41.20;;;20.90;;
45318;SDS011;31057;48.498;32.260;2024-02-28T05:14:18;49.58;;;25.05;;
45318;SDS011;31057;48.498;32.260;2024-02-28T05:16:20;55.53;;;23.42;;
45318;SDS011;31057;48.498;32.260;2024-02-28T05:20:24;54.70;;;26.35;;
45318;SDS011;31057;48.498;32.260;2024-02-28T05:22:26;52.85;;;22.17;;
45318;SDS011;31057;48.498;32.260;2024-02-28T05:24:28;49.63;;;20.70;;
45318;SDS011;31057;48.498;32.260;2024-02-28T05:26:30;43.42;;;18.48;;
45318;SDS011;31057;48.498;32.260;2024-02-28T05:28:35;59.55;;;20.17;;
45318;SDS011;31057;48.498;32.260;2024-02-28T05:30:37;69.85;;;19.30;;
45318;SDS011;31057;48.498;32.260;2024-02-28T05:32:43;60.30;;;18.08;;
45318;SDS011;31057;48.498;32.260;2024-02-28T05:34:45;41.67;;;14.90;;
45318;SDS011;31057;48.498;32.260;2024-02-28T05:36:47;43.17;;;16.23;;
45318;SDS011;31057;48.498;32.260;2024-02-28T05:38:51;43.58;;;15.35;;
45318;SDS011;31057;48.498;32.260;2024-02-28T05:40:53;30.88;;;17.33;;
45318;SDS011;31057;48.498;32.260;2024-02-28T05:42:55;48.50;;;17.95;;
45318;SDS011;31057;48.498;32.260;2024-02-28T05:44:57;42.33;;;15.57;;
45318;SDS011;31057;48.498;32.260;2024-02-28T05:46:59;34.83;;;14.80;;
45318;SDS011;31057;48.498;32.260;2024-02-28T05:49:01;55.83;;;15.48;;
45318;SDS011;31057;48.498;32.260;2024-02-28T05:51:04;44.97;;;14.23;;
45318;SDS011;31057;48.498;32.260;2024-02-28T05:53:06;56.28;;;15.38;;
45318;SDS011;31057;48.498;32.260;2024-02-28T05:57:10;37.05;;;12.63;;
45318;SDS011;31057;48.498;32.260;2024-02-28T05:59:12;42.28;;;11.93;;
45318;SDS011;31057;48.498;32.260;2024-02-28T06:01:15;55.65;;;14.10;;
45318;SDS011;31057;48.498;32.260;2024-02-28T06:03:19;35.17;;;12.43;;
45318;SDS011;31057;48.498;32.260;2024-02-28T06:05:21;36.90;;;15.05;;
45318;SDS011;31057;48.498;32.260;2024-02-28T06:09:26;41.50;;;12.75;;
45318;SDS011;31057;48.498;32.260;2024-02-28T06:11:28;42.38;;;10.80;;
45318;SDS011;31057;48.498;32.260;2024-02-28T06:13:31;29.48;;;11.15;;
45318;SDS011;31057;48.498;32.260;2024-02-28T06:15:33;29.15;;;10.68;;
45318;SDS011;31057;48.498;32.260;2024-02-28T06:19:37;31.65;;;14.07;;
45318;SDS011;31057;48.498;32.260;2024-02-28T06:23:41;25.80;;;10.50;;
45318;SDS011;31057;48.498;32.260;2024-02-28T06:25:43;34.53;;;13.68;;
45318;SDS011;31057;48.498;32.260;2024-02-28T06:29:47;29.27;;;11.05;;
45318;SDS011;31057;48.498;32.260;2024-02-28T06:31:50;29.80;;;10.85;;
45318;SDS011;31057;48.498;32.260;2024-02-28T06:33:53;32.65;;;10.07;;
45318;SDS011;31057;48.498;32.260;2024-02-28T06:37:57;49.30;;;14.82;;
45318;SDS011;31057;48.498;32.260;2024-02-28T06:39:59;39.80;;;12.48;;
45318;SDS011;31057;48.498;32.260;2024-02-28T06:42:01;27.27;;;9.35;;
45318;SDS011;31057;48.498;32.260;2024-02-28T06:44:03;29.45;;;7.93;;
45318;SDS011;31057;48.498;32.260;2024-02-28T06:46:05;27.52;;;9.13;;
45318;SDS011;31057;48.498;32.260;2024-02-28T06:50:09;26.05;;;9.43;;
45318;SDS011;31057;48.498;32.260;2024-02-28T06:54:13;29.80;;;9.90;;
45318;SDS011;31057;48.498;32.260;2024-02-28T06:56:15;28.30;;;8.82;;
45318;SDS011;31057;48.498;32.260;2024-02-28T06:58:18;37.47;;;9.77;;
45318;SDS011;31057;48.498;32.260;2024-02-28T07:00:20;25.52;;;7.85;;
45318;SDS011;31057;48.498;32.260;2024-02-28T07:02:22;29.10;;;6.90;;
45318;SDS011;31057;48.498;32.260;2024-02-28T07:04:24;45.17;;;7.93;;
45318;SDS011;31057;48.498;32.260;2024-02-28T07:06:26;29.02;;;8.73;;
45318;SDS011;31057;48.498;32.260;2024-02-28T07:08:28;29.67;;;7.20;;
45318;SDS011;31057;48.498;32.260;2024-02-28T07:12:32;39.45;;;7.47;;
45318;SDS011;31057;48.498;32.260;2024-02-28T07:14:34;26.45;;;7.95;;
45318;SDS011;31057;48.498;32.260;2024-02-28T07:16:36;29.63;;;7.72;;
45318;SDS011;31057;48.498;32.260;2024-02-28T07:18:38;34.83;;;10.30;;
45318;SDS011;31057;48.498;32.260;2024-02-28T07:20:40;23.45;;;8.27;;
45318;SDS011;31057;48.498;32.260;2024-02-28T07:24:44;28.75;;;7.10;;
45318;SDS011;31057;48.498;32.260;2024-02-28T07:26:46;31.65;;;10.07;;
45318;SDS011;31057;48.498;32.260;2024-02-28T07:28:50;25.45;;;9.60;;
45318;SDS011;31057;48.498;32.260;2024-02-28T07:30:52;23.58;;;7.15;;
45318;SDS011;31057;48.498;32.260;2024-02-28T07:32:54;28.95;;;7.38;;
45318;SDS011;31057;48.498;32.260;2024-02-28T07:34:56;27.27;;;7.60;;
45318;SDS011;31057;48.498;32.260;2024-02-28T07:36:58;26.50;;;7.70;;
45318;SDS011;31057;48.498;32.260;2024-02-28T07:39:00;27.52;;;7.68;;
45318;SDS011;31057;48.498;32.260;2024-02-28T07:41:02;37.58;;;8.13;;
45318;SDS011;31057;48.498;32.260;2024-02-28T07:45:06;28.85;;;6.93;;
45318;SDS011;31057;48.498;32.260;2024-02-28T07:47:10;31.25;;;7.10;;
45318;SDS011;31057;48.498;32.260;2024-02-28T07:49:12;24.15;;;6.45;;
45318;SDS011;31057;48.498;32.260;2024-02-28T07:51:14;32.70;;;8.80;;
45318;SDS011;31057;48.498;32.260;2024-02-28T07:53:17;46.38;;;8.75;;
45318;SDS011;31057;48.498;32.260;2024-02-28T07:55:19;36.95;;;9.57;;
45318;SDS011;31057;48.498;32.260;2024-02-28T07:57:23;42.17;;;8.70;;
45318;SDS011;31057;48.498;32.260;2024-02-28T07:59:25;25.70;;;7.35;;
45318;SDS011;31057;48.498;32.260;2024-02-28T08:03:29;30.13;;;7.30;;
45318;SDS011;31057;48.498;32.260;2024-02-28T08:07:36;26.95;;;6.63;;
45318;SDS011;31057;48.498;32.260;2024-02-28T08:09:38;29.17;;;7.32;;
45318;SDS011;31057;48.498;32.260;2024-02-28T08:11:40;26.70;;;7.97;;
45318;SDS011;31057;48.498;32.260;2024-02-28T08:13:42;24.38;;;7.95;;
45318;SDS011;31057;48.498;32.260;2024-02-28T08:15:45;26.20;;;8.52;;
45318;SDS011;31057;48.498;32.260;2024-02-28T08:19:48;30.98;;;6.95;;
45318;SDS011;31057;48.498;32.260;2024-02-28T08:21:50;28.40;;;7.60;;
45318;SDS011;31057;48.498;32.260;2024-02-28T08:23:52;31.65;;;7.85;;
45318;SDS011;31057;48.498;32.260;2024-02-28T08:27:56;19.60;;;7.25;;
45318;SDS011;31057;48.498;32.260;2024-02-28T08:29:58;32.53;;;8.23;;
45318;SDS011;31057;48.498;32.260;2024-02-28T08:32:00;32.20;;;7.88;;
45318;SDS011;31057;48.498;32.260;2024-02-28T08:34:02;27.15;;;7.78;;
45318;SDS011;31057;48.498;32.260;2024-02-28T08:36:06;48.40;;;12.48;;
45318;SDS011;31057;48.498;32.260;2024-02-28T08:40:10;22.45;;;8.48;;
45318;SDS011;31057;48.498;32.260;2024-02-28T08:42:13;25.00;;;6.63;;
45318;SDS011;31057;48.498;32.260;2024-02-28T08:44:15;30.52;;;7.55;;
45318;SDS011;31057;48.498;32.260;2024-02-28T08:46:17;23.08;;;8.10;;
45318;SDS011;31057;48.498;32.260;2024-02-28T08:50:21;30.23;;;8.98;;
45318;SDS011;31057;48.498;32.260;2024-02-28T08:52:23;29.88;;;7.13;;
45318;SDS011;31057;48.498;32.260;2024-02-28T08:54:25;19.98;;;7.13;;
45318;SDS011;31057;48.498;32.260;2024-02-28T08:56:27;20.55;;;6.88;;
45318;SDS011;31057;48.498;32.260;2024-02-28T08:58:29;47.05;;;7.35;;
45318;SDS011;31057;48.498;32.260;2024-02-28T09:00:31;33.97;;;7.53;;
45318;SDS011;31057;48.498;32.260;2024-02-28T09:02:33;32.60;;;7.20;;
45318;SDS011;31057;48.498;32.260;2024-02-28T09:04:36;38.28;;;9.13;;
45318;SDS011;31057;48.498;32.260;2024-02-28T09:06:38;29.02;;;7.75;;
45318;SDS011;31057;48.498;32.260;2024-02-28T09:08:40;33.90;;;7.43;;
45318;SDS011;31057;48.498;32.260;2024-02-28T09:10:42;34.45;;;8.00;;
45318;SDS011;31057;48.498;32.260;2024-02-28T09:12:44;30.52;;;7.47;;
45318;SDS011;31057;48.498;32.260;2024-02-28T09:16:48;21.23;;;7.30;;
45318;SDS011;31057;48.498;32.260;2024-02-28T09:18:50;34.47;;;7.97;;
45318;SDS011;31057;48.498;32.260;2024-02-28T09:20:52;31.75;;;7.50;;
45318;SDS011;31057;48.498;32.260;2024-02-28T09:22:55;50.60;;;7.65;;
45318;SDS011;31057;48.498;32.260;2024-02-28T09:24:57;33.33;;;7.15;;
45318;SDS011;31057;48.498;32.260;2024-02-28T09:29:01;29.80;;;8.30;;
45318;SDS011;31057;48.498;32.260;2024-02-28T09:31:02;31.10;;;8.15;;
45318;SDS011;31057;48.498;32.260;2024-02-28T09:33:07;38.65;;;8.00;;
45318;SDS011;31057;48.498;32.260;2024-02-28T09:35:10;30.92;;;7.68;;
45318;SDS011;31057;48.498;32.260;2024-02-28T09:37:13;30.38;;;7.95;;
45318;SDS011;31057;48.498;32.260;2024-02-28T09:39:15;37.90;;;9.25;;
45318;SDS011;31057;48.498;32.260;2024-02-28T09:43:24;30.38;;;7.72;;
45318;SDS011;31057;48.498;32.260;2024-02-28T09:45:30;29.63;;;9.00;;
45318;SDS011;31057;48.498;32.260;2024-02-28T09:47:33;33.42;;;7.88;;
45318;SDS011;31057;48.498;32.260;2024-02-28T09:49:36;29.98;;;7.13;;
45318;SDS011;31057;48.498;32.260;2024-02-28T09:51:38;21.55;;;7.13;;
45318;SDS011;31057;48.498;32.260;2024-02-28T09:55:42;25.63;;;7.22;;
45318;SDS011;31057;48.498;32.260;2024-02-28T09:57:45;28.65;;;6.55;;
45318;SDS011;31057;48.498;32.260;2024-02-28T09:59:49;28.27;;;6.57;;
45318;SDS011;31057;48.498;32.260;2024-02-28T10:01:56;31.35;;;9.93;;
45318;SDS011;31057;48.498;32.260;2024-02-28T10:03:59;30.55;;;8.23;;
45318;SDS011;31057;48.498;32.260;2024-02-28T10:06:03;38.47;;;9.65;;
45318;SDS011;31057;48.498;32.260;2024-02-28T10:08:07;31.33;;;7.55;;
45318;SDS011;31057;48.498;32.260;2024-02-28T10:10:10;20.58;;;7.25;;
45318;SDS011;31057;48.498;32.260;2024-02-28T10:12:12;34.40;;;8.68;;
45318;SDS011;31057;48.498;32.260;2024-02-28T10:14:18;27.42;;;7.40;;
45318;SDS011;31057;48.498;32.260;2024-02-28T10:16:20;44.00;;;7.03;;
45318;SDS011;31057;48.498;32.260;2024-02-28T10:18:23;27.92;;;5.82;;
45318;SDS011;31057;48.498;32.260;2024-02-28T10:20:26;32.75;;;6.72;;
45318;SDS011;31057;48.498;32.260;2024-02-28T10:22:35;25.88;;;6.78;;
45318;SDS011;31057;48.498;32.260;2024-02-28T10:24:37;37.63;;;13.25;;
45318;SDS011;31057;48.498;32.260;2024-02-28T10:26:46;32.45;;;8.32;;
45318;SDS011;31057;48.498;32.260;2024-02-28T10:28:56;35.72;;;7.82;;
45318;SDS011;31057;48.498;32.260;2024-02-28T10:30:58;26.85;;;6.18;;
45318;SDS011;31057;48.498;32.260;2024-02-28T10:33:01;20.63;;;5.20;;
45318;SDS011;31057;48.498;32.260;2024-02-28T10:37:05;18.73;;;5.63;;
45318;SDS011;31057;48.498;32.260;2024-02-28T10:39:07;17.33;;;6.47;;
45318;SDS011;31057;48.498;32.260;2024-02-28T10:41:11;32.00;;;8.13;;
45318;SDS011;31057;48.498;32.260;2024-02-28T10:43:16;33.88;;;6.35;;
45318;SDS011;31057;48.498;32.260;2024-02-28T10:45:21;28.88;;;5.53;;
45318;SDS011;31057;48.498;32.260;2024-02-28T10:47:46;32.08;;;5.72;;
45318;SDS011;31057;48.498;32.260;2024-02-28T10:49:52;17.58;;;4.80;;
45318;SDS011;31057;48.498;32.260;2024-02-28T10:51:55;30.55;;;6.63;;
45318;SDS011;31057;48.498;32.260;2024-02-28T10:54:05;22.13;;;5.25;;
45318;SDS011;31057;48.498;32.260;2024-02-28T10:56:11;21.83;;;5.45;;
45318;SDS011;31057;48.498;32.260;2024-02-28T10:58:13;49.13;;;7.80;;
45318;SDS011;31057;48.498;32.260;2024-02-28T11:00:16;35.30;;;6.30;;
45318;SDS011;31057;48.498;32.260;2024-02-28T11:02:19;73.35;;;9.70;;
45318;SDS011;31057;48.498;32.260;2024-02-28T11:04:21;42.15;;;6.10;;
45318;SDS011;31057;48.498;32.260;2024-02-28T11:06:23;34.97;;;6.80;;
45318;SDS011;31057;48.498;32.260;2024-02-28T11:08:27;28.70;;;5.90;;
45318;SDS011;31057;48.498;32.260;2024-02-28T11:10:31;35.03;;;6.00;;
45318;SDS011;31057;48.498;32.260;2024-02-28T11:12:34;20.25;;;5.18;;
45318;SDS011;31057;48.498;32.260;2024-02-28T11:14:38;33.80;;;6.35;;
45318;SDS011;31057;48.498;32.260;2024-02-28T11:16:40;28.77;;;7.15;;
45318;SDS011;31057;48.498;32.260;2024-02-28T11:18:48;46.33;;;7.32;;
45318;SDS011;31057;48.498;32.260;2024-02-28T11:20:51;34.78;;;6.22;;
45318;SDS011;31057;48.498;32.260;2024-02-28T11:22:56;30.88;;;6.32;;
45318;SDS011;31057;48.498;32.260;2024-02-28T11:24:59;25.48;;;5.05;;
45318;SDS011;31057;48.498;32.260;2024-02-28T11:27:01;25.50;;;5.60;;
45318;SDS011;31057;48.498;32.260;2024-02-28T11:29:07;29.20;;;6.28;;
45318;SDS011;31057;48.498;32.260;2024-02-28T11:31:10;28.23;;;6.82;;
45318;SDS011;31057;48.498;32.260;2024-02-28T11:33:12;38.33;;;6.15;;
45318;SDS011;31057;48.498;32.260;2024-02-28T11:35:15;23.10;;;4.35;;
45318;SDS011;31057;48.498;32.260;2024-02-28T11:37:17;30.30;;;5.35;;
45318;SDS011;31057;48.498;32.260;2024-02-28T11:39:19;25.65;;;5.60;;
45318;SDS011;31057;48.498;32.260;2024-02-28T11:41:28;41.22;;;6.72;;
45318;SDS011;31057;48.498;32.260;2024-02-28T11:43:34;28.42;;;5.75;;
45318;SDS011;31057;48.498;32.260;2024-02-28T11:45:52;24.52;;;4.85;;
45318;SDS011;31057;48.498;32.260;2024-02-28T11:47:56;27.23;;;5.50;;
45318;SDS011;31057;48.498;32.260;2024-02-28T11:49:59;29.48;;;5.75;;
45318;SDS011;31057;48.498;32.260;2024-02-28T11:52:03;39.55;;;5.82;;
45318;SDS011;31057;48.498;32.260;2024-02-28T11:54:07;37.58;;;6.93;;
45318;SDS011;31057;48.498;32.260;2024-02-28T11:56:10;26.42;;;6.53;;
45318;SDS011;31057;48.498;32.260;2024-02-28T11:58:12;19.98;;;6.28;;
45318;SDS011;31057;48.498;32.260;2024-02-28T12:00:14;21.10;;;4.95;;
45318;SDS011;31057;48.498;32.260;2024-02-28T12:02:16;25.58;;;6.35;;
45318;SDS011;31057;48.498;32.260;2024-02-28T12:04:18;27.38;;;5.50;;
45318;SDS011;31057;48.498;32.260;2024-02-28T12:06:20;20.15;;;6.03;;
45318;SDS011;31057;48.498;32.260;2024-02-28T12:08:22;19.63;;;5.28;;
45318;SDS011;31057;48.498;32.260;2024-02-28T12:10:28;28.60;;;5.65;;
45318;SDS011;31057;48.498;32.260;2024-02-28T12:14:35;39.75;;;7.20;;
45318;SDS011;31057;48.498;32.260;2024-02-28T12:16:39;29.42;;;5.90;;
45318;SDS011;31057;48.498;32.260;2024-02-28T12:18:41;31.63;;;5.57;;
45318;SDS011;31057;48.498;32.260;2024-02-28T12:22:46;23.02;;;6.30;;
45318;SDS011;31057;48.498;32.260;2024-02-28T12:24:48;23.92;;;6.13;;
45318;SDS011;31057;48.498;32.260;2024-02-28T12:26:50;19.65;;;6.32;;
45318;SDS011;31057;48.498;32.260;2024-02-28T12:28:52;26.80;;;5.43;;
45318;SDS011;31057;48.498;32.260;2024-02-28T12:30:54;36.35;;;5.53;;
45318;SDS011;31057;48.498;32.260;2024-02-28T12:32:56;33.67;;;5.88;;
45318;SDS011;31057;48.498;32.260;2024-02-28T12:34:58;31.25;;;6.63;;
45318;SDS011;31057;48.498;32.260;2024-02-28T12:37:03;22.58;;;6.45;;
45318;SDS011;31057;48.498;32.260;2024-02-28T12:39:06;28.73;;;6.88;;
45318;SDS011;31057;48.498;32.260;2024-02-28T12:41:08;18.98;;;6.10;;
45318;SDS011;31057;48.498;32.260;2024-02-28T12:43:11;38.13;;;7.05;;
45318;SDS011;31057;48.498;32.260;2024-02-28T12:45:13;35.28;;;6.35;;
45318;SDS011;31057;48.498;32.260;2024-02-28T12:47:15;22.90;;;6.35;;
45318;SDS011;31057;48.498;32.260;2024-02-28T12:49:17;26.13;;;6.38;;
45318;SDS011;31057;48.498;32.260;2024-02-28T12:53:44;29.02;;;5.47;;
45318;SDS011;31057;48.498;32.260;2024-02-28T12:55:52;27.73;;;5.95;;
45318;SDS011;31057;48.498;32.260;2024-02-28T12:57:55;26.38;;;5.97;;
45318;SDS011;31057;48.498;32.260;2024-02-28T13:01:59;21.05;;;6.30;;
45318;SDS011;31057;48.498;32.260;2024-02-28T13:04:01;19.20;;;5.53;;
45318;SDS011;31057;48.498;32.260;2024-02-28T13:06:04;34.10;;;5.97;;
45318;SDS011;31057;48.498;32.260;2024-02-28T13:08:06;15.82;;;5.30;;
45318;SDS011;31057;48.498;32.260;2024-02-28T13:10:08;38.92;;;6.20;;
45318;SDS011;31057;48.498;32.260;2024-02-28T13:12:13;35.55;;;6.43;;
45318;SDS011;31057;48.498;32.260;2024-02-28T13:16:17;15.82;;;4.78;;
45318;SDS011;31057;48.498;32.260;2024-02-28T13:18:19;18.27;;;4.68;;
45318;SDS011;31057;48.498;32.260;2024-02-28T13:20:21;24.45;;;4.95;;
45318;SDS011;31057;48.498;32.260;2024-02-28T13:24:26;23.92;;;5.75;;
45318;SDS011;31057;48.498;32.260;2024-02-28T13:26:29;29.73;;;6.18;;
45318;SDS011;31057;48.498;32.260;2024-02-28T13:30:33;20.30;;;7.05;;
45318;SDS011;31057;48.498;32.260;2024-02-28T13:32:37;23.95;;;5.70;;
45318;SDS011;31057;48.498;32.260;2024-02-28T13:34:40;25.95;;;5.55;;
45318;SDS011;31057;48.498;32.260;2024-02-28T13:38:45;25.65;;;6.13;;
45318;SDS011;31057;48.498;32.260;2024-02-28T13:40:47;39.55;;;6.15;;
45318;SDS011;31057;48.498;32.260;2024-02-28T13:42:50;26.15;;;5.53;;
45318;SDS011;31057;48.498;32.260;2024-02-28T13:46:54;50.67;;;7.13;;
45318;SDS011;31057;48.498;32.260;2024-02-28T13:48:56;37.17;;;7.00;;
45318;SDS011;31057;48.498;32.260;2024-02-28T13:50:58;24.80;;;6.22;;
45318;SDS011;31057;48.498;32.260;2024-02-28T13:53:00;42.40;;;6.40;;
45318;SDS011;31057;48.498;32.260;2024-02-28T13:55:02;22.35;;;5.03;;
45318;SDS011;31057;48.498;32.260;2024-02-28T13:57:05;26.33;;;8.27;;
45318;SDS011;31057;48.498;32.260;2024-02-28T13:59:10;24.88;;;6.78;;
45318;SDS011;31057;48.498;32.260;2024-02-28T14:01:12;44.17;;;8.07;;
45318;SDS011;31057;48.498;32.260;2024-02-28T14:03:15;25.92;;;7.13;;
45318;SDS011;31057;48.498;32.260;2024-02-28T14:07:21;19.77;;;6.00;;
45318;SDS011;31057;48.498;32.260;2024-02-28T14:09:23;26.10;;;5.60;;
45318;SDS011;31057;48.498;32.260;2024-02-28T14:11:25;28.45;;;6.78;;
45318;SDS011;31057;48.498;32.260;2024-02-28T14:13:27;19.77;;;6.20;;
45318;SDS011;31057;48.498;32.260;2024-02-28T14:15:29;26.73;;;7.35;;
45318;SDS011;31057;48.498;32.260;2024-02-28T14:19:33;20.63;;;6.65;;
45318;SDS011;31057;48.498;32.260;2024-02-28T14:21:37;28.42;;;8.07;;
45318;SDS011;31057;48.498;32.260;2024-02-28T14:25:40;38.33;;;9.30;;
45318;SDS011;31057;48.498;32.260;2024-02-28T14:29:46;21.52;;;6.72;;
45318;SDS011;31057;48.498;32.260;2024-02-28T14:31:48;32.67;;;7.10;;
45318;SDS011;31057;48.498;32.260;2024-02-28T14:33:50;45.50;;;12.50;;
45318;SDS011;31057;48.498;32.260;2024-02-28T14:37:54;24.13;;;8.13;;